createdAt,value
2018-09-19T00:00:22.050Z,19.95
2018-09-19T00:02:50.591Z,20.20
2018-09-19T00:05:19.050Z,20.04
2018-09-19T00:07:47.480Z,20.24
2018-09-19T00:10:15.962Z,20.05
2018-09-19T00:12:44.387Z,20.01
2018-09-19T00:15:12.874Z,20.11
2018-09-19T00:17:41.325Z,20.09
2018-09-19T00:20:09.792Z,20.04
2018-09-19T00:22:38.223Z,20.11
2018-09-19T00:25:06.639Z,19.99
2018-09-19T00:27:35.192Z,20.10
2018-09-19T00:30:03.623Z,19.98
2018-09-19T00:32:31.998Z,19.86
2018-09-19T00:35:00.492Z,19.63
2018-09-19T00:37:28.949Z,19.56
2018-09-19T00:39:57.379Z,19.43
2018-09-19T00:42:25.807Z,19.55
2018-09-19T00:44:54.341Z,19.78
2018-09-19T00:47:23.012Z,19.51
2018-09-19T00:49:51.477Z,19.45
2018-09-19T00:52:19.884Z,19.57
2018-09-19T00:54:48.876Z,19.68
2018-09-19T00:57:17.253Z,19.61
2018-09-19T00:59:45.736Z,19.51
2018-09-19T01:02:14.176Z,19.19
2018-09-19T01:04:42.481Z,19.30
2018-09-19T01:07:11.005Z,19.37
2018-09-19T01:09:39.353Z,19.47
2018-09-19T01:12:07.778Z,19.29
2018-09-19T01:14:36.220Z,19.11
2018-09-19T01:17:04.625Z,19.32
2018-09-19T01:19:33.012Z,19.28
2018-09-19T01:22:01.435Z,19.33
2018-09-19T01:24:29.777Z,19.42
2018-09-19T01:26:58.215Z,19.33
2018-09-19T01:29:26.699Z,19.18
2018-09-19T01:31:55.330Z,19.02
2018-09-19T01:34:23.738Z,19.09
2018-09-19T01:36:52.307Z,19.19
2018-09-19T01:39:20.719Z,19.04
2018-09-19T01:41:49.144Z,18.91
2018-09-19T01:44:17.523Z,19.05
2018-09-19T01:46:45.996Z,19.12
2018-09-19T01:49:14.368Z,19.09
2018-09-19T01:51:42.831Z,19.35
2018-09-19T01:54:11.285Z,18.94
2018-09-19T01:56:39.719Z,19.44
2018-09-19T01:59:08.021Z,19.33
2018-09-19T02:01:36.365Z,19.20
2018-09-19T02:04:04.759Z,19.10
2018-09-19T02:06:33.151Z,19.18
2018-09-19T02:09:01.525Z,18.83
2018-09-19T02:11:29.844Z,18.88
2018-09-19T02:13:58.241Z,18.64
2018-09-19T02:16:26.594Z,18.99
2018-09-19T02:18:54.990Z,18.79
2018-09-19T02:21:23.362Z,19.12
2018-09-19T02:23:51.802Z,19.36
2018-09-19T02:26:20.088Z,19.18
2018-09-19T02:28:48.488Z,19.13
2018-09-19T02:31:17.027Z,18.98
2018-09-19T02:33:45.568Z,19.17
2018-09-19T02:36:18.740Z,19.30
2018-09-19T02:38:47.580Z,19.31
2018-09-19T02:41:16.062Z,19.22
2018-09-19T02:43:44.538Z,19.20
2018-09-19T02:46:12.946Z,19.15
2018-09-19T02:48:41.407Z,19.14
2018-09-19T02:51:09.795Z,18.72
2018-09-19T02:53:39.171Z,18.89
2018-09-19T02:56:07.502Z,18.82
2018-09-19T02:58:35.762Z,18.98
2018-09-19T03:01:04.302Z,19.04
2018-09-19T03:03:32.648Z,18.73
2018-09-19T03:06:01.084Z,18.87
2018-09-19T03:08:29.631Z,18.99
2018-09-19T03:10:57.998Z,19.10
2018-09-19T03:13:26.400Z,19.10
2018-09-19T03:15:54.783Z,18.77
2018-09-19T03:18:23.388Z,18.98
2018-09-19T03:20:51.808Z,18.89
2018-09-19T03:23:20.197Z,18.99
2018-09-19T03:25:48.555Z,19.04
2018-09-19T03:28:16.993Z,19.03
2018-09-19T03:30:45.634Z,18.87
2018-09-19T03:33:14.058Z,18.40
2018-09-19T03:35:42.464Z,18.41
2018-09-19T03:38:10.871Z,18.67
2018-09-19T03:40:39.300Z,18.59
2018-09-19T03:43:07.727Z,18.47
2018-09-19T03:45:36.133Z,18.42
2018-09-19T03:48:04.507Z,18.53
2018-09-19T03:50:32.952Z,18.35
2018-09-19T03:53:01.343Z,18.39
2018-09-19T03:55:29.759Z,18.24
2018-09-19T03:57:58.144Z,18.17
2018-09-19T04:00:26.570Z,18.15
2018-09-19T04:02:54.931Z,18.55
2018-09-19T04:05:23.343Z,18.28
2018-09-19T04:07:51.716Z,18.27
2018-09-19T04:10:20.106Z,18.21
2018-09-19T04:12:48.574Z,18.28
2018-09-19T04:15:17.048Z,18.28
2018-09-19T04:20:51.526Z,18.61
2018-09-19T04:23:20.516Z,18.05
2018-09-19T04:25:48.874Z,18.13
2018-09-19T04:28:17.270Z,18.25
2018-09-19T04:30:45.548Z,18.17
2018-09-19T04:33:13.871Z,18.10
2018-09-19T04:35:42.245Z,18.03
2018-09-19T04:38:10.573Z,17.81
2018-09-19T04:40:38.903Z,17.74
2018-09-19T04:43:19.025Z,17.70
2018-09-19T04:45:47.326Z,17.83
2018-09-19T04:48:15.651Z,17.91
2018-09-19T04:50:44.055Z,17.88
2018-09-19T04:53:12.415Z,17.93
2018-09-19T04:55:40.745Z,17.82
2018-09-19T04:58:09.063Z,17.61
2018-09-19T05:00:37.548Z,18.10
2018-09-19T05:03:06.192Z,18.01
2018-09-19T05:05:34.730Z,18.06
2018-09-19T05:08:03.004Z,17.99
2018-09-19T05:10:31.323Z,17.67
2018-09-19T05:12:59.683Z,17.99
2018-09-19T05:15:28.181Z,17.97
2018-09-19T05:17:56.595Z,17.93
2018-09-19T05:20:25.088Z,17.89
2018-09-19T05:22:53.891Z,17.96
2018-09-19T05:25:22.256Z,17.87
2018-09-19T05:27:50.736Z,17.80
2018-09-19T05:30:19.284Z,17.96
2018-09-19T05:32:47.767Z,18.27
2018-09-19T05:35:16.634Z,18.37
2018-09-19T05:37:45.007Z,18.26
2018-09-19T05:40:13.634Z,18.64
2018-09-19T05:42:42.060Z,18.46
2018-09-19T05:45:10.540Z,18.40
2018-09-19T05:47:38.979Z,18.48
2018-09-19T05:50:07.373Z,18.83
2018-09-19T05:52:36.028Z,18.85
2018-09-19T05:55:04.541Z,19.18
2018-09-19T05:57:32.970Z,19.27
2018-09-19T06:00:02.611Z,19.28
2018-09-19T06:02:31.135Z,19.35
2018-09-19T06:04:59.681Z,19.44
2018-09-19T06:07:28.858Z,19.41
2018-09-19T06:09:57.268Z,19.89
2018-09-19T06:12:25.668Z,19.86
2018-09-19T06:14:54.109Z,20.19
2018-09-19T06:17:22.549Z,20.01
2018-09-19T06:19:51.150Z,19.81
2018-09-19T06:22:19.550Z,19.84
2018-09-19T06:24:48.003Z,19.83
2018-09-19T06:27:16.433Z,20.84
2018-09-19T06:29:44.927Z,21.86
2018-09-19T06:32:13.456Z,22.18
2018-09-19T06:34:41.924Z,23.08
2018-09-19T06:37:11.793Z,23.17
2018-09-19T06:39:40.219Z,23.73
2018-09-19T06:42:08.674Z,24.39
2018-09-19T06:44:37.262Z,25.84
2018-09-19T06:47:05.769Z,26.51
2018-09-19T06:49:34.173Z,26.84
2018-09-19T06:52:02.629Z,27.53
2018-09-19T06:54:31.003Z,26.43
2018-09-19T06:56:59.473Z,25.99
2018-09-19T06:59:27.869Z,27.62
2018-09-19T07:01:56.223Z,27.95
2018-09-19T07:04:24.631Z,29.97
2018-09-19T07:06:53.067Z,31.71
2018-09-19T07:09:21.497Z,32.17
2018-09-19T07:11:49.888Z,33.39
2018-09-19T07:14:18.236Z,33.10
2018-09-19T07:16:46.575Z,33.53
2018-09-19T07:19:15.116Z,34.02
2018-09-19T07:21:43.548Z,32.68
2018-09-19T07:24:11.986Z,34.09
2018-09-19T07:26:40.488Z,32.64
2018-09-19T07:29:08.899Z,34.56
2018-09-19T07:31:37.297Z,35.05
2018-09-19T07:34:06.302Z,33.89
2018-09-19T07:36:34.675Z,33.90
2018-09-19T07:39:03.203Z,31.89
2018-09-19T07:41:31.561Z,31.77
2018-09-19T07:44:00.107Z,31.57
2018-09-19T07:46:28.619Z,32.05
2018-09-19T07:48:57.024Z,32.53
2018-09-19T07:51:25.303Z,32.74
2018-09-19T07:53:53.642Z,33.84
2018-09-19T07:56:22.021Z,33.59
2018-09-19T07:58:50.495Z,32.54
2018-09-19T08:01:19.168Z,31.97
2018-09-19T08:03:47.512Z,30.34
2018-09-19T08:06:16.040Z,29.67
2018-09-19T08:08:44.382Z,30.29
2018-09-19T08:11:12.847Z,30.19
2018-09-19T08:13:41.237Z,31.49
2018-09-19T08:16:09.560Z,31.35
2018-09-19T08:18:37.904Z,32.01
2018-09-19T08:21:06.301Z,33.53
2018-09-19T08:23:34.673Z,34.32
2018-09-19T08:26:03.171Z,34.20
2018-09-19T08:28:31.537Z,33.59
2018-09-19T08:31:00.046Z,33.59
2018-09-19T08:33:28.484Z,33.17
2018-09-19T08:35:56.980Z,32.84
2018-09-19T08:38:25.467Z,32.76
2018-09-19T08:40:54.959Z,32.72
2018-09-19T08:43:23.396Z,33.20
2018-09-19T08:45:52.055Z,32.83
2018-09-19T08:48:20.580Z,33.38
2018-09-19T08:50:48.962Z,32.86
2018-09-19T08:53:17.566Z,33.57
2018-09-19T08:55:45.951Z,33.03
2018-09-19T08:58:14.392Z,33.12
2018-09-19T09:00:42.834Z,33.78
2018-09-19T09:03:11.252Z,34.53
2018-09-19T09:05:39.787Z,34.39
2018-09-19T09:08:08.446Z,33.94
2018-09-19T09:10:36.936Z,33.74
2018-09-19T09:13:05.373Z,33.86
2018-09-19T09:15:33.934Z,33.53
2018-09-19T09:18:02.348Z,33.33
2018-09-19T09:20:30.798Z,34.08
2018-09-19T09:22:59.188Z,34.37
2018-09-19T09:25:27.663Z,34.52
2018-09-19T09:27:56.095Z,34.00
2018-09-19T09:30:24.472Z,33.82
2018-09-19T09:32:52.932Z,32.96
2018-09-19T09:35:21.481Z,33.91
2018-09-19T09:37:49.914Z,34.91
2018-09-19T09:40:18.467Z,33.94
2018-09-19T09:42:46.780Z,34.72
2018-09-19T09:45:15.182Z,34.01
2018-09-19T09:47:43.577Z,34.50
2018-09-19T09:50:12.275Z,34.96
2018-09-19T09:52:40.618Z,34.64
2018-09-19T09:55:09.035Z,35.65
2018-09-19T09:57:37.385Z,34.87
2018-09-19T10:00:05.969Z,33.81
2018-09-19T10:02:34.329Z,34.55
2018-09-19T10:05:02.821Z,34.07
2018-09-19T10:07:31.230Z,32.96
2018-09-19T10:09:59.670Z,32.08
2018-09-19T10:12:27.956Z,33.80
2018-09-19T10:14:56.424Z,34.44
2018-09-19T10:17:24.789Z,33.33
2018-09-19T10:19:53.212Z,32.85
2018-09-19T10:22:21.576Z,33.27
2018-09-19T10:24:49.943Z,34.53
2018-09-19T10:27:18.284Z,35.03
2018-09-19T10:29:46.716Z,33.67
2018-09-19T10:32:15.125Z,33.06
2018-09-19T10:34:43.452Z,33.33
2018-09-19T10:37:11.854Z,33.10
2018-09-19T10:39:40.121Z,33.47
2018-09-19T10:42:08.736Z,32.18
2018-09-19T10:44:37.100Z,32.48
2018-09-19T10:47:05.394Z,31.99
2018-09-19T10:49:33.816Z,32.93
2018-09-19T10:52:02.143Z,32.37
2018-09-19T10:54:30.474Z,33.05
2018-09-19T10:56:58.829Z,32.11
2018-09-19T10:59:27.083Z,32.86
2018-09-19T11:01:55.415Z,32.92
2018-09-19T11:04:23.816Z,34.00
2018-09-19T11:06:52.160Z,34.75
2018-09-19T11:09:20.500Z,35.05
2018-09-19T11:11:48.821Z,34.68
2018-09-19T11:14:17.121Z,33.87
2018-09-19T11:16:48.484Z,32.56
2018-09-19T11:19:16.789Z,32.91
2018-09-19T11:21:45.103Z,32.96
2018-09-19T11:24:13.843Z,32.32
2018-09-19T11:26:42.249Z,31.08
2018-09-19T11:29:10.747Z,31.16
2018-09-19T11:31:39.808Z,31.74
2018-09-19T11:34:08.463Z,32.46
2018-09-19T11:36:36.866Z,33.05
2018-09-19T11:39:09.362Z,32.91
2018-09-19T11:41:37.704Z,33.25
2018-09-19T11:44:06.164Z,32.43
2018-09-19T11:46:34.520Z,32.06
2018-09-19T11:49:02.901Z,31.69
2018-09-19T11:51:31.349Z,31.85
2018-09-19T11:53:59.683Z,31.96
2018-09-19T11:56:28.081Z,31.08
2018-09-19T11:58:56.452Z,31.64
2018-09-19T12:01:25.291Z,31.24
2018-09-19T12:03:53.791Z,31.81
2018-09-19T12:06:22.369Z,32.78
2018-09-19T12:08:50.856Z,32.50
2018-09-19T12:11:19.299Z,32.58
2018-09-19T12:13:47.940Z,32.59
2018-09-19T12:16:16.389Z,32.59
2018-09-19T12:18:44.889Z,32.49
2018-09-19T12:21:13.509Z,32.99
2018-09-19T12:23:42.144Z,31.66
2018-09-19T12:26:10.701Z,30.76
2018-09-19T12:28:39.119Z,31.16
2018-09-19T12:31:08.420Z,31.05
2018-09-19T12:33:36.851Z,29.89
2018-09-19T12:36:05.263Z,30.05
2018-09-19T12:38:33.692Z,29.49
2018-09-19T12:41:02.141Z,29.28
2018-09-19T12:43:30.634Z,29.41
2018-09-19T12:45:59.230Z,28.95
2018-09-19T12:48:27.644Z,29.09
2018-09-19T12:50:56.087Z,30.00
2018-09-19T12:53:25.153Z,30.83
2018-09-19T12:55:54.373Z,30.68
2018-09-19T12:58:22.917Z,30.64
2018-09-19T13:00:51.780Z,29.93
2018-09-19T13:03:20.414Z,29.33
2018-09-19T13:05:48.862Z,29.32
2018-09-19T13:08:17.923Z,30.19
2018-09-19T13:10:46.408Z,30.24
2018-09-19T13:13:15.668Z,29.83
2018-09-19T13:15:44.032Z,28.79
2018-09-19T13:18:12.428Z,28.64
2018-09-19T13:20:40.918Z,28.97
2018-09-19T13:23:09.348Z,29.56
2018-09-19T13:25:37.797Z,30.12
2018-09-19T13:28:06.230Z,29.75
2018-09-19T13:30:34.670Z,30.18
2018-09-19T13:33:03.148Z,29.47
2018-09-19T13:35:31.544Z,29.94
2018-09-19T13:38:00.072Z,29.96
2018-09-19T13:40:28.545Z,29.45
2018-09-19T13:42:56.956Z,29.04
2018-09-19T13:45:25.347Z,28.57
2018-09-19T13:47:53.845Z,28.43
2018-09-19T13:51:32.955Z,29.01
2018-09-19T13:54:01.425Z,28.52
2018-09-19T13:56:29.876Z,28.76
2018-09-19T13:58:58.388Z,28.93
2018-09-19T14:01:26.786Z,29.03
2018-09-19T14:03:55.301Z,29.27
2018-09-19T14:06:23.769Z,29.20
2018-09-19T14:08:52.301Z,29.66
2018-09-19T14:11:20.663Z,28.32
2018-09-19T14:13:49.051Z,29.55
2018-09-19T14:16:17.397Z,29.15
2018-09-19T14:18:46.012Z,28.50
2018-09-19T14:21:14.451Z,29.15
2018-09-19T14:23:42.923Z,29.57
2018-09-19T14:26:11.579Z,29.29
2018-09-19T14:28:39.932Z,29.20
2018-09-19T14:31:08.264Z,28.70
2018-09-19T14:33:36.648Z,28.93
2018-09-19T14:36:05.132Z,29.42
2018-09-19T14:38:33.512Z,29.40
2018-09-19T14:41:01.884Z,29.70
2018-09-19T14:43:30.363Z,29.65
2018-09-19T14:45:58.733Z,28.67
2018-09-19T14:48:27.109Z,28.84
2018-09-19T14:50:55.405Z,29.08
2018-09-19T14:53:23.720Z,29.31
2018-09-19T14:55:52.023Z,29.26
2018-09-19T14:58:20.414Z,28.64
2018-09-19T15:00:48.775Z,28.71
2018-09-19T15:03:17.119Z,28.58
2018-09-19T15:05:45.588Z,28.76
2018-09-19T15:08:15.002Z,29.33
2018-09-19T15:10:43.409Z,28.89
2018-09-19T15:13:11.746Z,28.14
2018-09-19T15:15:40.116Z,28.67
2018-09-19T15:18:08.819Z,28.67
2018-09-19T15:20:37.053Z,28.31
2018-09-19T15:23:05.411Z,28.36
2018-09-19T15:25:33.808Z,28.38
2018-09-19T15:28:02.187Z,28.09
2018-09-19T15:30:30.540Z,28.90
2018-09-19T15:32:58.890Z,29.28
2018-09-19T15:35:27.202Z,28.74
2018-09-19T15:37:55.848Z,28.29
2018-09-19T15:40:24.251Z,28.01
2018-09-19T15:42:52.560Z,28.59
2018-09-19T15:45:22.255Z,28.92
2018-09-19T15:47:52.629Z,28.61
2018-09-19T15:50:20.924Z,29.21
2018-09-19T15:52:49.293Z,29.24
2018-09-19T15:55:17.763Z,28.46
2018-09-19T15:57:46.236Z,30.07
2018-09-19T16:00:15.049Z,28.44
2018-09-19T16:02:43.391Z,28.80
2018-09-19T16:05:11.891Z,28.98
2018-09-19T16:07:40.268Z,28.51
2018-09-19T16:10:08.677Z,28.47
2018-09-19T16:12:37.247Z,28.41
2018-09-19T16:15:05.607Z,28.35
2018-09-19T16:17:33.908Z,28.30
2018-09-19T16:20:02.236Z,28.75
2018-09-19T16:22:30.583Z,28.29
2018-09-19T16:24:58.973Z,28.01
2018-09-19T16:27:27.364Z,27.96
2018-09-19T16:29:55.676Z,28.85
2018-09-19T16:32:24.005Z,28.19
2018-09-19T16:34:52.389Z,28.08
2018-09-19T16:37:20.727Z,27.98
2018-09-19T16:39:49.054Z,27.58
2018-09-19T16:42:17.363Z,27.71
2018-09-19T16:44:45.634Z,27.71
2018-09-19T16:47:13.916Z,28.17
2018-09-19T16:49:42.199Z,28.06
2018-09-19T16:52:10.515Z,28.49
2018-09-19T16:54:38.838Z,27.87
2018-09-19T16:57:07.133Z,27.80
2018-09-19T16:59:35.599Z,27.81
2018-09-19T17:02:04.020Z,27.62
2018-09-19T17:04:32.319Z,27.56
2018-09-19T17:07:00.631Z,27.84
2018-09-19T17:09:29.012Z,28.00
2018-09-19T17:11:57.400Z,27.75
2018-09-19T17:14:25.688Z,27.38
2018-09-19T17:16:53.997Z,27.73
2018-09-19T17:19:22.363Z,27.37
2018-09-19T17:21:50.647Z,27.24
2018-09-19T17:24:18.968Z,27.56
2018-09-19T17:26:47.276Z,26.94
2018-09-19T17:29:15.883Z,26.84
2018-09-19T17:31:44.203Z,26.94
2018-09-19T17:34:12.531Z,26.67
2018-09-19T17:36:41.029Z,26.88
2018-09-19T17:39:10.951Z,27.16
2018-09-19T17:41:39.300Z,27.28
2018-09-19T17:44:07.799Z,27.15
2018-09-19T17:46:36.414Z,27.36
2018-09-19T17:49:04.920Z,27.01
2018-09-19T17:51:33.267Z,27.02
2018-09-19T17:54:01.624Z,26.89
2018-09-19T17:56:29.968Z,26.97
2018-09-19T17:58:58.364Z,26.54
2018-09-19T18:01:26.743Z,26.61
2018-09-19T18:03:55.140Z,27.07
2018-09-19T18:06:23.559Z,26.82
2018-09-19T18:08:52.157Z,26.91
2018-09-19T18:11:20.677Z,26.57
2018-09-19T18:13:49.233Z,26.60
2018-09-19T18:16:17.705Z,26.56
2018-09-19T18:18:46.182Z,26.32
2018-09-19T18:21:14.615Z,26.36
2018-09-19T18:23:43.032Z,25.79
2018-09-19T18:26:11.561Z,26.50
2018-09-19T18:28:40.201Z,26.70
2018-09-19T18:31:09.201Z,26.54
2018-09-19T18:33:37.973Z,26.22
2018-09-19T18:36:06.844Z,26.42
2018-09-19T18:38:35.499Z,26.12
2018-09-19T18:41:04.126Z,26.28
2018-09-19T18:43:32.619Z,26.29
2018-09-19T18:46:01.090Z,26.19
2018-09-19T18:48:30.285Z,26.73
2018-09-19T18:50:58.808Z,26.28
2018-09-19T18:53:27.191Z,26.10
2018-09-19T18:55:55.600Z,25.91
2018-09-19T18:58:24.051Z,25.81
2018-09-19T19:00:52.520Z,25.57
2018-09-19T19:03:21.018Z,25.74
2018-09-19T19:05:49.520Z,25.76
2018-09-19T19:08:18.951Z,25.78
2018-09-19T19:10:47.451Z,25.94
2018-09-19T19:13:16.027Z,25.40
2018-09-19T19:15:44.663Z,25.74
2018-09-19T19:18:13.211Z,26.20
2018-09-19T19:20:42.635Z,26.44
2018-09-19T19:23:11.103Z,26.17
2018-09-19T19:25:39.663Z,25.80
2018-09-19T19:28:08.205Z,26.13
2018-09-19T19:30:36.868Z,26.02
2018-09-19T19:33:05.168Z,25.83
2018-09-19T19:35:33.594Z,25.73
2018-09-19T19:38:02.124Z,26.13
2018-09-19T19:40:30.535Z,25.92
2018-09-19T19:42:59.241Z,25.59
2018-09-19T19:45:27.809Z,25.84
2018-09-19T19:47:56.532Z,26.15
2018-09-19T19:50:25.011Z,26.42
2018-09-19T19:52:53.491Z,26.18
2018-09-19T19:55:22.051Z,25.68
2018-09-19T19:57:50.630Z,25.93
2018-09-19T20:00:19.035Z,25.61
2018-09-19T20:02:47.508Z,25.27
2018-09-19T20:05:15.952Z,25.70
2018-09-19T20:07:44.713Z,25.22
2018-09-19T20:10:13.306Z,25.68
2018-09-19T20:12:41.784Z,25.64
2018-09-19T20:15:10.244Z,25.78
2018-09-19T20:17:39.324Z,25.09
2018-09-19T20:20:07.706Z,24.94
2018-09-19T20:22:36.133Z,25.26
2018-09-19T20:25:04.709Z,25.14
2018-09-19T20:27:33.099Z,25.32
2018-09-19T20:30:01.544Z,25.10
2018-09-19T20:32:29.929Z,25.23
2018-09-19T20:34:58.337Z,25.16
2018-09-19T20:37:26.744Z,24.97
2018-09-19T20:39:55.235Z,24.76
2018-09-19T20:42:23.760Z,24.76
2018-09-19T20:44:52.212Z,24.59
2018-09-19T20:47:20.678Z,24.23
2018-09-19T20:49:49.115Z,23.83
2018-09-19T20:52:17.526Z,24.10
2018-09-19T20:54:45.923Z,23.91
2018-09-19T20:57:14.397Z,23.48
2018-09-19T20:59:42.882Z,23.82
2018-09-19T21:02:11.289Z,23.43
2018-09-19T21:04:39.785Z,23.55
2018-09-19T21:07:08.153Z,23.42
2018-09-19T21:09:36.603Z,23.26
2018-09-19T21:12:05.008Z,23.16
2018-09-19T21:14:33.473Z,23.26
2018-09-19T21:17:01.867Z,23.16
2018-09-19T21:19:30.286Z,22.82
2018-09-19T21:21:59.021Z,22.92
2018-09-19T21:24:27.335Z,22.96
2018-09-19T21:26:55.839Z,22.78
2018-09-19T21:29:25.046Z,22.76
2018-09-19T21:31:53.533Z,22.30
2018-09-19T21:34:22.013Z,22.41
2018-09-19T21:36:50.523Z,22.53
2018-09-19T21:39:18.999Z,22.46
2018-09-19T21:41:47.636Z,22.16
2018-09-19T21:44:16.062Z,21.95
2018-09-19T21:46:44.475Z,22.10
2018-09-19T21:49:12.891Z,22.03
2018-09-19T21:51:41.435Z,21.93
2018-09-19T21:54:09.940Z,21.74
2018-09-19T21:56:38.736Z,21.66
2018-09-19T21:59:07.085Z,21.78
2018-09-19T22:01:41.367Z,21.67
2018-09-19T22:04:09.723Z,21.47
2018-09-19T22:06:38.546Z,21.35
2018-09-19T22:09:09.305Z,21.33
2018-09-19T22:11:37.923Z,21.35
2018-09-19T22:14:06.344Z,21.36
2018-09-19T22:16:34.692Z,21.28
2018-09-19T22:19:03.017Z,21.06
2018-09-19T22:21:31.753Z,21.14
2018-09-19T22:24:00.149Z,21.23
2018-09-19T22:26:28.656Z,21.12
2018-09-19T22:28:57.071Z,21.06
2018-09-19T22:31:25.748Z,21.04
2018-09-19T22:33:54.106Z,21.08
2018-09-19T22:36:22.479Z,21.05
2018-09-19T22:38:50.914Z,20.98
2018-09-19T22:41:19.861Z,21.12
2018-09-19T22:43:48.343Z,21.21
2018-09-19T22:46:16.761Z,21.28
2018-09-19T22:48:45.340Z,21.24
2018-09-19T22:51:13.839Z,20.94
2018-09-19T22:53:42.674Z,20.97
2018-09-19T22:56:11.138Z,20.90
2018-09-19T22:58:39.596Z,21.02
2018-09-19T23:01:08.044Z,20.76
2018-09-19T23:03:36.532Z,20.66
2018-09-19T23:06:04.899Z,20.77
2018-09-19T23:08:33.314Z,20.74
2018-09-19T23:11:01.711Z,20.66
2018-09-19T23:13:30.120Z,20.52
2018-09-19T23:15:58.537Z,20.62
2018-09-19T23:18:26.966Z,20.61
2018-09-19T23:20:55.376Z,20.51
2018-09-19T23:23:23.776Z,20.69
2018-09-19T23:25:52.223Z,20.73
2018-09-19T23:28:20.673Z,20.89
2018-09-19T23:30:49.041Z,21.09
2018-09-19T23:33:17.577Z,21.04
2018-09-19T23:35:46.080Z,21.21
2018-09-19T23:38:14.688Z,21.10
2018-09-19T23:40:43.214Z,21.00
2018-09-19T23:43:11.705Z,20.79
2018-09-19T23:45:40.393Z,21.13
2018-09-19T23:48:08.868Z,21.21
2018-09-19T23:50:37.312Z,21.02
2018-09-19T23:53:05.644Z,20.82
2018-09-19T23:55:33.992Z,20.90
2018-09-19T23:58:02.434Z,20.83
